Time;durP1;ratioP1;P1;durP2;ratioP2;P2;SDS_P1;SDS_P2;PMS_P1;PMS_P2;Temp;Humidity;BMP_temperature;BMP_pressure;BME280_temperature;BME280_humidity;BME280_pressure;Samples;Min_cycle;Max_cycle;Signal;HPM_P1;HPM_P2
2022/04/06 00:01:49;;;;;;;8.97;6.37;;;5.00;99.90;;;;;;5150702;27;20202;-66
2022/04/06 00:04:16;;;;;;;8.70;7.03;;;5.00;99.90;;;;;;5150529;27;20632;-66
2022/04/06 00:06:44;;;;;;;8.70;6.87;;;5.00;99.90;;;;;;5150582;27;20274;-67
2022/04/06 00:09:12;;;;;;;9.00;7.10;;;5.00;99.90;;;;;;5150482;27;20678;-66
2022/04/06 00:11:39;;;;;;;8.87;6.80;;;5.00;99.90;;;;;;5150179;27;20248;-66
2022/04/06 00:14:06;;;;;;;8.73;7.07;;;5.00;99.90;;;;;;5150052;27;20314;-66
2022/04/06 00:16:33;;;;;;;9.13;6.67;;;5.00;99.90;;;;;;5149970;27;20241;-65
2022/04/06 00:19:00;;;;;;;9.90;7.03;;;5.00;99.90;;;;;;5150314;27;20568;-67
2022/04/06 00:21:27;;;;;;;7.83;6.83;;;4.90;99.90;;;;;;5150184;27;20238;-66
2022/04/06 00:23:56;;;;;;;9.60;7.37;;;4.90;99.90;;;;;;5150207;27;20281;-66
2022/04/06 00:26:25;;;;;;;8.57;7.30;;;4.90;99.90;;;;;;5149847;27;20210;-65
2022/04/06 00:28:52;;;;;;;8.43;6.60;;;4.90;99.90;;;;;;5149857;27;20206;-67
2022/04/06 00:31:19;;;;;;;9.57;7.40;;;4.90;99.90;;;;;;5149651;27;20233;-66
2022/04/06 00:33:47;;;;;;;11.30;7.53;;;4.90;99.90;;;;;;5149634;27;20321;-66
2022/04/06 00:36:14;;;;;;;10.13;7.30;;;4.80;99.90;;;;;;5149599;27;20226;-66
2022/04/06 00:38:41;;;;;;;10.23;7.20;;;4.80;99.90;;;;;;5149951;27;20202;-66
2022/04/06 00:41:08;;;;;;;9.07;7.30;;;4.80;99.90;;;;;;5149856;27;20233;-65
2022/04/06 00:43:36;;;;;;;10.03;6.97;;;4.80;99.90;;;;;;5149605;27;20234;-66
2022/04/06 00:46:03;;;;;;;9.53;7.20;;;4.80;99.90;;;;;;5135800;27;20686;-66
2022/04/06 00:48:30;;;;;;;9.07;7.27;;;4.80;99.90;;;;;;5135558;27;20293;-66
2022/04/06 00:50:58;;;;;;;10.17;7.87;;;4.80;99.90;;;;;;5135950;27;20241;-66
2022/04/06 00:53:25;;;;;;;10.53;7.77;;;4.80;99.90;;;;;;5135592;27;20699;-66
2022/04/06 00:55:53;;;;;;;10.00;7.23;;;4.80;99.90;;;;;;5135909;27;20611;-66
2022/04/06 00:58:20;;;;;;;10.87;7.37;;;4.80;99.90;;;;;;5135597;27;20701;-66
2022/04/06 01:00:48;;;;;;;10.90;7.60;;;4.80;99.90;;;;;;5135469;27;20310;-66
2022/04/06 01:03:15;;;;;;;9.73;7.50;;;4.90;99.90;;;;;;5135174;27;20234;-67
2022/04/06 01:05:43;;;;;;;10.30;7.63;;;4.90;99.90;;;;;;5135474;27;20293;-66
2022/04/06 01:08:11;;;;;;;11.13;8.13;;;4.90;99.90;;;;;;5135082;27;20258;-66
2022/04/06 01:10:38;;;;;;;10.77;7.60;;;4.80;99.90;;;;;;5135228;27;20202;-67
2022/04/06 01:13:06;;;;;;;10.60;7.23;;;4.80;99.90;;;;;;5135282;27;20452;-66
2022/04/06 01:15:33;;;;;;;10.17;8.00;;;4.80;99.90;;;;;;5135581;27;20245;-66
2022/04/06 01:18:02;;;;;;;10.43;7.43;;;4.80;99.90;;;;;;5134925;27;20294;-65
2022/04/06 01:20:29;;;;;;;10.43;7.73;;;4.80;99.90;;;;;;5134998;27;20249;-67
2022/04/06 01:22:58;;;;;;;12.77;8.50;;;4.70;99.90;;;;;;5135255;27;20202;-66
2022/04/06 01:25:26;;;;;;;10.37;7.90;;;4.70;99.90;;;;;;5134800;27;20249;-66
2022/04/06 01:27:53;;;;;;;12.30;8.43;;;4.60;99.90;;;;;;5134786;27;20242;-66
2022/04/06 01:30:20;;;;;;;12.83;9.30;;;4.60;99.90;;;;;;5134954;27;20674;-66
2022/04/06 01:32:47;;;;;;;11.77;8.90;;;4.60;99.90;;;;;;5134849;27;20674;-67
2022/04/06 01:35:14;;;;;;;10.93;8.57;;;4.60;99.90;;;;;;5134809;27;20265;-67
2022/04/06 01:37:41;;;;;;;12.00;8.93;;;4.60;99.90;;;;;;5134649;27;20293;-66
2022/04/06 01:40:10;;;;;;;11.33;8.97;;;4.60;99.90;;;;;;5134659;27;20678;-66
2022/04/06 01:42:37;;;;;;;13.07;9.10;;;4.50;99.90;;;;;;5134863;27;20294;-66
2022/04/06 01:45:05;;;;;;;12.23;9.47;;;4.40;99.90;;;;;;5134750;27;20249;-66
2022/04/06 01:47:32;;;;;;;13.63;10.23;;;4.40;99.90;;;;;;5134826;27;20238;-67
2022/04/06 01:52:43;;;;;;;12.00;9.07;;;4.30;99.90;;;;;;5134511;27;20309;-66
2022/04/06 01:55:13;;;;;;;10.90;8.53;;;4.30;99.90;;;;;;5134174;27;20242;-65
2022/04/06 01:57:41;;;;;;;11.63;8.67;;;4.20;99.90;;;;;;5133477;27;20218;-66
2022/04/06 02:00:13;;;;;;;12.27;8.80;;;4.20;99.90;;;;;;5134240;27;20234;-66
2022/04/06 02:02:40;;;;;;;11.97;9.20;;;4.20;99.90;;;;;;5134621;27;20669;-65
2022/04/06 02:05:08;;;;;;;12.57;9.33;;;4.10;99.90;;;;;;5134226;27;20210;-66
2022/04/06 02:07:35;;;;;;;12.57;8.97;;;4.10;99.90;;;;;;5134504;27;20238;-67
2022/04/06 02:10:02;;;;;;;12.43;8.80;;;4.10;99.90;;;;;;5134383;27;20730;-67
2022/04/06 02:12:31;;;;;;;11.53;8.80;;;4.10;99.90;;;;;;5134135;27;20207;-66
2022/04/06 02:14:58;;;;;;;13.07;9.40;;;4.10;99.90;;;;;;5134095;27;20254;-67
2022/04/06 02:17:27;;;;;;;12.37;8.90;;;4.10;99.90;;;;;;5134331;27;20625;-66
2022/04/06 02:19:54;;;;;;;12.03;8.90;;;4.00;99.90;;;;;;5134064;27;20206;-66
2022/04/06 02:22:21;;;;;;;13.83;9.00;;;4.00;99.90;;;;;;5133887;27;20234;-65
2022/04/06 02:24:48;;;;;;;12.67;8.83;;;4.00;99.90;;;;;;5134134;27;20634;-67
2022/04/06 02:27:16;;;;;;;11.80;9.00;;;3.90;99.90;;;;;;5133998;27;20249;-66
2022/04/06 02:29:44;;;;;;;12.77;9.47;;;3.90;99.90;;;;;;5133664;27;20209;-66
2022/04/06 02:32:11;;;;;;;12.60;9.13;;;3.90;99.90;;;;;;5133831;27;20560;-66
2022/04/06 02:34:40;;;;;;;12.30;9.40;;;3.90;99.90;;;;;;5133552;27;20264;-67
2022/04/06 02:37:08;;;;;;;12.07;8.50;;;3.90;99.90;;;;;;5133459;27;20198;-66
2022/04/06 02:39:34;;;;;;;12.60;9.17;;;3.90;99.90;;;;;;5133809;27;20644;-66
2022/04/06 02:42:02;;;;;;;13.80;9.13;;;3.90;99.90;;;;;;5133605;27;20297;-66
2022/04/06 02:44:29;;;;;;;14.57;9.20;;;3.90;99.90;;;;;;5133717;27;20229;-66
2022/04/06 02:46:57;;;;;;;14.00;9.57;;;3.90;99.90;;;;;;5133561;27;20245;-66
2022/04/06 02:49:24;;;;;;;11.83;8.83;;;3.90;99.90;;;;;;5133713;27;20246;-67
2022/04/06 02:51:51;;;;;;;14.07;9.80;;;3.90;99.90;;;;;;5133073;27;20294;-65
2022/04/06 02:54:18;;;;;;;13.17;9.00;;;3.90;99.90;;;;;;5133230;27;20305;-66
2022/04/06 02:56:45;;;;;;;12.77;9.30;;;3.90;99.90;;;;;;5133539;27;20712;-66
2022/04/06 02:59:12;;;;;;;12.80;9.03;;;3.90;99.90;;;;;;5133377;27;20210;-66
2022/04/06 03:01:39;;;;;;;11.80;8.73;;;3.80;99.90;;;;;;5133509;27;20237;-66
2022/04/06 03:04:07;;;;;;;14.00;9.67;;;3.80;99.90;;;;;;5133199;27;20286;-65
2022/04/06 03:06:35;;;;;;;12.37;8.97;;;3.80;99.90;;;;;;5133052;27;20249;-66
2022/04/06 03:09:01;;;;;;;13.03;9.10;;;3.80;99.90;;;;;;5133022;27;20723;-66
2022/04/06 03:11:28;;;;;;;12.20;8.70;;;3.80;99.90;;;;;;5132957;27;20210;-66
2022/04/06 03:13:55;;;;;;;12.00;9.33;;;3.70;99.90;;;;;;5132987;27;20700;-66
2022/04/06 03:16:22;;;;;;;13.70;9.17;;;3.70;99.90;;;;;;5132870;27;20289;-66
2022/04/06 03:18:49;;;;;;;14.43;9.63;;;3.70;99.90;;;;;;5133090;27;20206;-65
2022/04/06 03:21:17;;;;;;;14.10;9.17;;;3.70;99.90;;;;;;5132902;27;20234;-67
2022/04/06 03:23:44;;;;;;;13.87;9.57;;;3.70;99.90;;;;;;5133174;27;20652;-66
2022/04/06 03:26:11;;;;;;;12.43;8.93;;;3.60;99.90;;;;;;5133151;27;20293;-66
2022/04/06 03:28:39;;;;;;;11.83;8.87;;;3.60;99.90;;;;;;5132766;27;20293;-66
2022/04/06 03:31:06;;;;;;;12.50;8.67;;;3.60;99.90;;;;;;5132993;27;20221;-67
2022/04/06 03:33:33;;;;;;;15.07;9.93;;;3.60;99.90;;;;;;5132521;27;20241;-68
2022/04/06 03:36:00;;;;;;;13.17;8.87;;;3.50;99.90;;;;;;5132920;28;20645;-67
2022/04/06 03:38:28;;;;;;;15.10;9.87;;;3.50;99.90;;;;;;5132963;27;20249;-67
2022/04/06 03:40:55;;;;;;;17.20;10.60;;;3.60;99.90;;;;;;5132789;27;20249;-66
2022/04/06 03:43:22;;;;;;;15.00;10.07;;;3.50;99.90;;;;;;5132658;28;20238;-66
2022/04/06 03:45:49;;;;;;;16.60;10.07;;;3.50;99.90;;;;;;5132702;28;20234;-67
2022/04/06 03:48:16;;;;;;;13.43;9.20;;;3.50;99.90;;;;;;5132912;28;20285;-66
2022/04/06 03:50:44;;;;;;;15.00;9.67;;;3.50;99.90;;;;;;5132475;28;20245;-66
2022/04/06 03:53:11;;;;;;;14.83;9.70;;;3.50;99.90;;;;;;5132550;28;20202;-67
2022/04/06 03:55:39;;;;;;;15.80;9.40;;;3.50;99.90;;;;;;5132736;27;20261;-66
2022/04/06 03:58:06;;;;;;;14.03;9.63;;;3.50;99.90;;;;;;5132838;28;20240;-66
2022/04/06 04:00:34;;;;;;;12.03;8.67;;;3.50;99.90;;;;;;5132361;28;20207;-67
2022/04/06 04:03:01;;;;;;;11.73;8.50;;;3.60;99.90;;;;;;5132584;28;20246;-67
2022/04/06 04:05:28;;;;;;;12.03;8.97;;;3.60;99.90;;;;;;5132419;28;20241;-66
2022/04/06 04:07:55;;;;;;;11.70;9.07;;;3.60;99.90;;;;;;5132210;28;20291;-66
2022/04/06 04:10:22;;;;;;;15.40;9.70;;;3.60;99.90;;;;;;5132523;28;20351;-66
2022/04/06 04:12:50;;;;;;;14.03;9.17;;;3.60;99.90;;;;;;5132419;28;20255;-66
2022/04/06 04:15:17;;;;;;;13.43;9.03;;;3.70;99.90;;;;;;5132466;28;20757;-65
2022/04/06 04:17:44;;;;;;;13.53;8.80;;;3.70;99.90;;;;;;5132113;27;20234;-66
2022/04/06 04:20:11;;;;;;;12.10;8.80;;;3.70;99.90;;;;;;5133868;27;20242;-66
2022/04/06 04:22:38;;;;;;;12.87;9.17;;;3.80;99.90;;;;;;5135931;27;20237;-66
2022/04/06 04:25:06;;;;;;;13.00;9.27;;;3.80;99.90;;;;;;5136463;27;20789;-66
2022/04/06 04:27:33;;;;;;;14.63;9.60;;;3.90;99.90;;;;;;5135932;27;20199;-65
2022/04/06 04:30:02;;;;;;;14.40;9.03;;;3.90;99.90;;;;;;5135860;27;20238;-66
2022/04/06 04:32:29;;;;;;;16.30;10.33;;;3.90;99.90;;;;;;5135909;27;20265;-66
2022/04/06 04:34:56;;;;;;;14.67;9.87;;;4.00;99.90;;;;;;5135731;27;20257;-66
2022/04/06 04:37:22;;;;;;;14.37;9.53;;;4.10;99.90;;;;;;5136164;27;20257;-66
2022/04/06 04:39:49;;;;;;;14.73;9.77;;;4.10;99.90;;;;;;5135787;27;20238;-67
2022/04/06 04:42:16;;;;;;;13.73;9.43;;;4.20;99.90;;;;;;5135683;27;20246;-65
2022/04/06 04:44:43;;;;;;;12.80;8.97;;;4.20;99.90;;;;;;5135704;27;20530;-65
2022/04/06 04:47:12;;;;;;;13.37;9.17;;;4.30;99.90;;;;;;5135840;27;20230;-66
2022/04/06 04:49:38;;;;;;;13.60;9.23;;;4.30;99.90;;;;;;5135703;27;20237;-67
2022/04/06 04:52:06;;;;;;;11.47;8.10;;;4.40;99.90;;;;;;5135735;27;20644;-67
2022/04/06 04:54:33;;;;;;;13.23;8.73;;;4.40;99.90;;;;;;5135470;27;20253;-67
2022/04/06 04:57:00;;;;;;;10.83;7.67;;;4.40;99.90;;;;;;5135688;27;20542;-67
2022/04/06 04:59:27;;;;;;;13.63;9.20;;;4.50;99.90;;;;;;5135572;27;20230;-66
2022/04/06 05:01:54;;;;;;;11.53;8.67;;;4.50;99.90;;;;;;5134630;27;20255;-67
2022/04/06 05:04:22;;;;;;;13.67;9.47;;;4.60;99.90;;;;;;5135116;27;20234;-67
2022/04/06 05:06:49;;;;;;;13.73;8.63;;;4.70;99.90;;;;;;5135302;27;20676;-67
2022/04/06 05:09:17;;;;;;;11.83;8.50;;;4.70;99.90;;;;;;5135139;27;20241;-66
2022/04/06 05:11:44;;;;;;;12.87;8.90;;;4.80;99.90;;;;;;5135100;27;20658;-65
2022/04/06 05:14:11;;;;;;;13.70;8.80;;;4.90;99.90;;;;;;5134995;27;20255;-66
2022/04/06 05:16:38;;;;;;;12.80;8.47;;;5.00;99.90;;;;;;5135160;27;20242;-66
2022/04/06 05:19:05;;;;;;;12.50;8.57;;;5.00;99.90;;;;;;5135002;27;20289;-66
2022/04/06 05:21:33;;;;;;;12.33;9.03;;;5.10;99.90;;;;;;5135061;27;20244;-66
2022/04/06 05:24:02;;;;;;;11.80;7.90;;;5.10;99.90;;;;;;5135077;27;20202;-66
2022/04/06 05:26:29;;;;;;;23.63;15.60;;;5.20;99.90;;;;;;5134726;27;20282;-66
2022/04/06 05:28:56;;;;;;;12.00;9.33;;;5.30;99.90;;;;;;5135066;27;20259;-66
2022/04/06 05:31:23;;;;;;;14.23;8.80;;;5.30;99.90;;;;;;5134899;27;20285;-67
2022/04/06 05:33:50;;;;;;;12.93;9.00;;;5.40;99.90;;;;;;5134437;27;20368;-67
2022/04/06 05:36:17;;;;;;;14.20;9.20;;;5.40;99.90;;;;;;5134838;27;20329;-66
2022/04/06 05:38:45;;;;;;;13.57;9.50;;;5.50;99.90;;;;;;5134468;27;20290;-66
2022/04/06 05:41:12;;;;;;;14.07;9.20;;;5.60;99.90;;;;;;5134795;27;20523;-68
2022/04/06 05:43:39;;;;;;;13.93;8.83;;;5.60;99.90;;;;;;5134617;27;20242;-66
2022/04/06 05:46:06;;;;;;;15.10;9.97;;;5.60;99.90;;;;;;5134672;27;20285;-68
2022/04/06 05:48:34;;;;;;;14.40;10.07;;;5.70;99.90;;;;;;5134274;27;20209;-67
2022/04/06 05:51:02;;;;;;;12.63;9.27;;;5.80;99.90;;;;;;5134799;27;20609;-65
2022/04/06 05:53:29;;;;;;;13.47;9.90;;;5.80;99.90;;;;;;5134657;27;20308;-67
2022/04/06 05:55:57;;;;;;;14.73;9.40;;;5.90;99.90;;;;;;5134277;27;20359;-65
2022/04/06 05:58:24;;;;;;;14.73;10.07;;;5.90;99.90;;;;;;5134355;27;20257;-66
2022/04/06 06:00:51;;;;;;;14.43;10.07;;;6.00;99.90;;;;;;5134578;27;20623;-67
2022/04/06 06:03:18;;;;;;;16.77;9.80;;;6.00;99.90;;;;;;5134228;27;20199;-66
2022/04/06 06:05:45;;;;;;;15.53;10.10;;;6.10;99.90;;;;;;5134422;27;20709;-65
2022/04/06 06:08:12;;;;;;;14.67;10.03;;;6.10;99.90;;;;;;5134376;27;20230;-66
2022/04/06 06:10:39;;;;;;;13.93;9.30;;;6.10;99.90;;;;;;5134208;27;20347;-66
2022/04/06 06:13:07;;;;;;;14.20;9.37;;;6.20;99.90;;;;;;5134141;27;20289;-66
2022/04/06 06:15:34;;;;;;;14.90;9.83;;;6.30;99.90;;;;;;5134123;27;20675;-67
2022/04/06 06:18:01;;;;;;;14.60;9.43;;;6.30;99.90;;;;;;5134227;27;20230;-66
2022/04/06 06:20:28;;;;;;;13.80;9.33;;;6.40;99.90;;;;;;5133807;27;20238;-67
2022/04/06 06:22:55;;;;;;;14.47;9.80;;;6.40;99.90;;;;;;5134100;27;20750;-67
2022/04/06 06:25:22;;;;;;;14.30;9.53;;;6.40;99.90;;;;;;5133849;27;20237;-67
2022/04/06 06:27:49;;;;;;;13.37;9.70;;;6.50;99.90;;;;;;5133774;27;20323;-67
2022/04/06 06:30:18;;;;;;;13.80;9.70;;;6.50;99.90;;;;;;5134009;27;20682;-66
2022/04/06 06:32:45;;;;;;;13.70;10.10;;;6.60;99.90;;;;;;5133429;27;20693;-66
2022/04/06 06:35:12;;;;;;;13.63;9.50;;;6.60;99.90;;;;;;5133904;27;20217;-67
2022/04/06 06:37:46;;;;;;;13.77;9.80;;;6.60;99.90;;;;;;5133631;27;20672;-67
2022/04/06 06:40:13;;;;;;;15.13;9.77;;;6.60;99.90;;;;;;5133652;27;20621;-66
2022/04/06 06:42:40;;;;;;;14.17;9.93;;;6.70;99.90;;;;;;5133076;27;20202;-65
2022/04/06 06:45:08;;;;;;;15.33;10.10;;;6.60;99.90;;;;;;5133302;27;20203;-66
2022/04/06 06:47:36;;;;;;;15.30;10.57;;;6.70;99.90;;;;;;5133440;27;20734;-66
2022/04/06 06:50:04;;;;;;;14.60;9.50;;;6.70;99.90;;;;;;5133279;27;20272;-66
2022/04/06 06:52:34;;;;;;;13.93;9.90;;;6.70;99.90;;;;;;5133271;27;20238;-66
2022/04/06 06:55:01;;;;;;;16.73;11.60;;;6.70;99.90;;;;;;5132999;27;20257;-66
2022/04/06 06:57:28;;;;;;;16.23;9.63;;;6.70;99.90;;;;;;5133282;27;20234;-66
2022/04/06 06:59:54;;;;;;;12.20;9.00;;;6.80;99.90;;;;;;5133093;27;20237;-66
2022/04/06 07:02:21;;;;;;;11.10;7.70;;;6.80;99.90;;;;;;5132895;27;20249;-65
2022/04/06 07:04:50;;;;;;;11.43;7.67;;;6.90;99.90;;;;;;5133356;27;20619;-66
2022/04/06 07:07:17;;;;;;;11.40;7.50;;;7.00;99.90;;;;;;5133004;27;20290;-67
2022/04/06 07:09:43;;;;;;;10.27;7.23;;;7.20;99.90;;;;;;5133087;27;20290;-66
2022/04/06 07:12:11;;;;;;;11.23;7.43;;;7.20;99.90;;;;;;5133187;27;20233;-66
2022/04/06 07:14:38;;;;;;;10.10;7.37;;;7.40;99.90;;;;;;5133179;27;20543;-67
2022/04/06 07:17:05;;;;;;;10.63;6.97;;;7.50;99.90;;;;;;5132829;27;20289;-66
2022/04/06 07:19:32;;;;;;;9.20;6.70;;;7.60;99.90;;;;;;5132958;27;20237;-67
2022/04/06 07:22:00;;;;;;;11.83;6.30;;;7.70;99.90;;;;;;5132578;27;20238;-67
2022/04/06 07:24:27;;;;;;;9.47;6.50;;;7.70;99.90;;;;;;5132958;27;20281;-68
2022/04/06 07:26:54;;;;;;;10.20;6.60;;;7.80;99.90;;;;;;5132657;27;20238;-66
2022/04/06 07:29:21;;;;;;;8.80;6.73;;;7.90;99.90;;;;;;5132481;27;20237;-66
2022/04/06 07:31:48;;;;;;;8.77;6.20;;;7.90;99.90;;;;;;5132487;27;20262;-69
2022/04/06 07:34:15;;;;;;;8.37;6.47;;;8.00;99.90;;;;;;5132218;28;20266;-66
2022/04/06 07:36:42;;;;;;;8.83;6.47;;;8.00;99.90;;;;;;5132567;28;20262;-66
2022/04/06 07:39:10;;;;;;;9.00;6.67;;;8.10;99.90;;;;;;5132790;28;20723;-66
2022/04/06 07:41:37;;;;;;;8.67;6.67;;;8.20;99.90;;;;;;5132591;28;20297;-66
2022/04/06 07:44:05;;;;;;;11.67;8.17;;;8.30;99.90;;;;;;5132943;27;20301;-66
2022/04/06 07:46:33;;;;;;;12.27;8.43;;;8.40;99.90;;;;;;5132594;28;20682;-66
2022/04/06 07:49:00;;;;;;;13.77;8.90;;;8.50;99.90;;;;;;5132808;28;20607;-67
2022/04/06 07:51:27;;;;;;;12.97;8.77;;;8.60;99.90;;;;;;5132702;28;20245;-66
2022/04/06 07:53:53;;;;;;;11.90;8.47;;;8.70;99.90;;;;;;5132771;27;20206;-67
2022/04/06 07:56:22;;;;;;;13.50;8.43;;;8.80;99.90;;;;;;5136217;27;20309;-67
2022/04/06 07:58:49;;;;;;;12.93;8.37;;;8.90;99.90;;;;;;5136694;27;20245;-65
2022/04/06 08:01:16;;;;;;;12.17;8.17;;;9.10;99.90;;;;;;5136810;27;20236;-66
2022/04/06 08:03:42;;;;;;;11.93;8.13;;;9.10;99.90;;;;;;5136835;27;20234;-66
2022/04/06 08:06:09;;;;;;;12.83;7.97;;;9.20;99.90;;;;;;5136624;27;20230;-67
2022/04/06 08:08:36;;;;;;;9.60;6.70;;;9.30;99.90;;;;;;5136864;27;20250;-66
2022/04/06 08:11:05;;;;;;;12.17;7.00;;;9.40;99.90;;;;;;5136291;27;20237;-66
2022/04/06 08:13:33;;;;;;;10.73;6.80;;;9.50;99.90;;;;;;5136652;27;20202;-67
2022/04/06 08:16:00;;;;;;;10.10;6.97;;;9.60;99.90;;;;;;5136606;27;20534;-67
2022/04/06 08:18:28;;;;;;;9.90;6.43;;;9.70;99.90;;;;;;5136383;27;20263;-67
2022/04/06 08:20:55;;;;;;;8.33;5.70;;;9.80;99.90;;;;;;5136592;27;20203;-67
2022/04/06 08:23:22;;;;;;;9.23;5.90;;;9.90;99.90;;;;;;5136168;27;20229;-67
2022/04/06 08:25:49;;;;;;;6.83;5.00;;;9.90;99.90;;;;;;5136139;27;20298;-66
2022/04/06 08:28:17;;;;;;;6.90;4.30;;;10.00;99.90;;;;;;5135904;27;20297;-66
2022/04/06 08:30:47;;;;;;;7.23;4.67;;;10.10;99.90;;;;;;5136322;27;20573;-66
2022/04/06 08:33:15;;;;;;;8.70;5.10;;;10.20;99.90;;;;;;5135877;27;20578;-65
2022/04/06 08:35:43;;;;;;;5.77;4.17;;;10.20;99.90;;;;;;5135953;27;20261;-66
2022/04/06 08:38:14;;;;;;;6.83;4.47;;;10.30;99.90;;;;;;5135970;27;20294;-66
2022/04/06 08:40:42;;;;;;;5.80;4.20;;;10.40;99.90;;;;;;5135773;27;20230;-67
2022/04/06 08:43:10;;;;;;;6.33;4.60;;;10.50;99.90;;;;;;5135773;27;20340;-66
2022/04/06 08:45:37;;;;;;;6.43;4.63;;;10.60;99.90;;;;;;5135839;27;20287;-66
2022/04/06 08:48:08;;;;;;;7.47;4.97;;;10.60;99.90;;;;;;5135854;27;20238;-67
2022/04/06 08:50:37;;;;;;;5.97;4.37;;;10.70;99.90;;;;;;5136023;27;20187;-68
2022/04/06 08:53:07;;;;;;;8.40;4.50;;;10.80;99.90;;;;;;5135743;27;20298;-66
2022/04/06 08:55:35;;;;;;;8.50;5.00;;;10.90;99.90;;;;;;5135594;27;20318;-66
2022/04/06 08:58:03;;;;;;;7.10;4.93;;;11.00;99.90;;;;;;5135378;27;20207;-66
2022/04/06 09:00:31;;;;;;;6.73;5.00;;;11.10;99.90;;;;;;5135680;27;20218;-66
2022/04/06 09:02:59;;;;;;;7.47;5.03;;;11.20;99.90;;;;;;5099640;27;20210;-67
2022/04/06 09:05:32;;;;;;;6.30;4.60;;;11.40;99.90;;;;;;5134827;27;20209;-66
2022/04/06 09:08:00;;;;;;;6.03;4.60;;;11.50;99.90;;;;;;5135351;27;20654;-67
2022/04/06 09:10:33;;;;;;;8.57;4.90;;;11.60;99.90;;;;;;5135186;27;20563;-67
2022/04/06 09:13:12;;;;;;;5.70;4.30;;;11.60;99.90;;;;;;5135186;27;20662;-67
2022/04/06 09:15:44;;;;;;;5.77;4.17;;;11.70;99.90;;;;;;5135315;27;20582;-67
2022/04/06 09:18:11;;;;;;;9.00;4.23;;;11.70;99.90;;;;;;5133924;27;20206;-67
2022/04/06 09:20:40;;;;;;;7.07;4.93;;;11.80;99.90;;;;;;5134930;27;20230;-66
2022/04/06 09:23:09;;;;;;;5.80;3.87;;;11.80;99.90;;;;;;5135053;27;20607;-66
2022/04/06 09:25:37;;;;;;;7.30;3.93;;;11.80;99.90;;;;;;5134821;27;20209;-67
2022/04/06 09:28:09;;;;;;;6.43;4.53;;;11.80;99.90;;;;;;5134497;27;20205;-67
2022/04/06 09:30:41;;;;;;;5.53;4.17;;;11.80;99.90;;;;;;5134518;27;20342;-66
2022/04/06 09:33:14;;;;;;;5.43;3.73;;;11.80;99.90;;;;;;5134612;27;20295;-67
2022/04/06 09:35:44;;;;;;;5.00;3.57;;;11.80;99.90;;;;;;5134891;27;20619;-66
2022/04/06 09:38:19;;;;;;;9.23;3.90;;;11.80;99.90;;;;;;5098617;27;20397;-66
2022/04/06 09:40:47;;;;;;;5.60;3.70;;;11.80;99.90;;;;;;5134899;27;20187;-67
2022/04/06 09:43:28;;;;;;;4.63;3.63;;;11.80;99.90;;;;;;5134365;27;20210;-66
2022/04/06 09:48:57;;;;;;;4.70;3.07;;;11.80;99.90;;;;;;5134685;27;20259;-66
2022/04/06 09:51:26;;;;;;;5.37;3.23;;;11.90;99.90;;;;;;5134655;27;20206;-67
2022/04/06 09:53:54;;;;;;;5.17;3.90;;;11.90;99.90;;;;;;5134276;27;20230;-66
2022/04/06 09:56:22;;;;;;;6.17;4.13;;;11.90;99.90;;;;;;5134597;27;20222;-67
2022/04/06 09:58:50;;;;;;;4.80;3.60;;;12.00;99.90;;;;;;5134521;27;20287;-67
2022/04/06 10:01:18;;;;;;;4.73;3.30;;;12.10;99.90;;;;;;5134074;27;20206;-67
2022/04/06 10:03:50;;;;;;;5.67;3.60;;;12.20;99.90;;;;;;5134137;27;20206;-66
2022/04/06 10:06:18;;;;;;;4.83;3.60;;;12.30;99.90;;;;;;5134092;27;20183;-66
2022/04/06 10:08:47;;;;;;;6.20;3.93;;;12.30;99.90;;;;;;5134077;27;20199;-66
2022/04/06 10:11:16;;;;;;;5.83;3.80;;;12.40;99.90;;;;;;5134279;27;20602;-67
2022/04/06 10:13:44;;;;;;;4.80;3.73;;;12.40;99.90;;;;;;5134244;27;20203;-67
2022/04/06 10:16:13;;;;;;;5.13;3.67;;;12.40;99.90;;;;;;5133690;27;20218;-66
2022/04/06 10:18:42;;;;;;;4.87;3.87;;;12.40;99.90;;;;;;5133059;27;20217;-66
2022/04/06 10:21:14;;;;;;;6.67;3.97;;;12.50;99.90;;;;;;5134037;27;20213;-68
2022/04/06 10:23:53;;;;;;;4.13;3.47;;;12.50;99.90;;;;;;5134479;27;20274;-68
2022/04/06 10:26:36;;;;;;;7.53;3.90;;;12.50;99.90;;;;;;5134056;27;20277;-66
2022/04/06 10:29:05;;;;;;;6.10;3.90;;;12.50;99.90;;;;;;5133575;27;20292;-67
2022/04/06 10:31:32;;;;;;;3.73;3.30;;;12.50;99.90;;;;;;5133916;27;20276;-66
2022/04/06 10:34:19;;;;;;;5.37;3.63;;;12.50;99.90;;;;;;5133344;27;20227;-66
2022/04/06 10:37:07;;;;;;;5.40;3.77;;;12.50;99.90;;;;;;5133802;27;20749;-66
2022/04/06 10:39:59;;;;;;;5.73;3.97;;;12.50;99.90;;;;;;5133430;27;20187;-67
2022/04/06 10:42:37;;;;;;;6.60;3.80;;;12.40;99.90;;;;;;5133860;27;20211;-67
2022/04/06 10:45:06;;;;;;;4.23;3.40;;;12.40;99.90;;;;;;5133512;27;20598;-66
2022/04/06 10:47:33;;;;;;;4.33;3.20;;;12.40;99.90;;;;;;5133361;27;20238;-67
2022/04/06 10:50:24;;;;;;;4.63;3.60;;;12.40;99.90;;;;;;5133229;27;20209;-66
2022/04/06 10:53:11;;;;;;;4.57;3.70;;;12.30;99.90;;;;;;5133083;27;20203;-66
2022/04/06 10:55:41;;;;;;;6.47;3.90;;;12.30;99.90;;;;;;5133111;27;20253;-65
2022/04/06 10:58:09;;;;;;;4.20;3.53;;;12.30;99.90;;;;;;5133101;27;20225;-67
2022/04/06 11:00:39;;;;;;;4.50;3.60;;;12.30;99.90;;;;;;5133119;27;20205;-67
2022/04/06 11:03:16;;;;;;;4.57;3.70;;;12.30;99.90;;;;;;5133032;27;20249;-66
2022/04/06 11:05:49;;;;;;;4.53;3.73;;;12.40;99.90;;;;;;5133359;27;20190;-66
2022/04/06 11:11:45;;;;;;;4.27;3.20;;;12.50;99.90;;;;;;5133106;27;20244;-66
2022/04/06 11:14:15;;;;;;;4.23;3.30;;;12.50;99.90;;;;;;5132984;27;20380;-66
2022/04/06 11:16:46;;;;;;;5.10;3.50;;;12.50;99.90;;;;;;5132600;27;20222;-67
2022/04/06 11:19:14;;;;;;;4.40;2.90;;;12.60;99.90;;;;;;5132804;27;20285;-66
2022/04/06 11:21:48;;;;;;;3.57;2.80;;;12.60;99.90;;;;;;5133057;27;20251;-66
2022/04/06 11:24:19;;;;;;;3.37;3.00;;;12.60;99.90;;;;;;5132892;27;20202;-66
2022/04/06 11:26:46;;;;;;;3.30;3.00;;;12.50;99.90;;;;;;5132552;27;20218;-67
2022/04/06 11:29:14;;;;;;;4.43;3.40;;;12.50;99.90;;;;;;5132851;27;20627;-67
2022/04/06 11:31:58;;;;;;;3.90;3.17;;;12.50;99.90;;;;;;5132861;27;20670;-67
2022/04/06 11:34:36;;;;;;;3.33;3.00;;;12.40;99.90;;;;;;5132558;27;20744;-67
2022/04/06 11:37:05;;;;;;;5.27;2.80;;;12.40;99.90;;;;;;5132619;28;20253;-68
2022/04/06 11:39:32;;;;;;;4.40;3.20;;;12.40;99.90;;;;;;5132910;28;20691;-68
2022/04/06 11:42:00;;;;;;;3.90;3.13;;;12.40;99.90;;;;;;5132736;28;20305;-67
2022/04/06 11:44:29;;;;;;;3.73;2.87;;;12.40;99.90;;;;;;5132779;28;20554;-67
2022/04/06 11:46:56;;;;;;;3.93;3.07;;;12.50;99.90;;;;;;5132427;28;20254;-67
2022/04/06 11:49:24;;;;;;;3.73;3.10;;;12.50;99.90;;;;;;5132551;28;20237;-66
2022/04/06 11:51:53;;;;;;;5.10;2.90;;;12.50;99.90;;;;;;5132657;28;20574;-67
2022/04/06 11:54:20;;;;;;;3.17;2.63;;;12.60;99.90;;;;;;5132869;28;20655;-66
2022/04/06 11:56:50;;;;;;;4.33;2.90;;;12.60;99.90;;;;;;5132540;27;20299;-67
2022/04/06 11:59:19;;;;;;;3.43;3.13;;;12.70;99.90;;;;;;5132870;28;20201;-68
2022/04/06 12:01:47;;;;;;;3.93;2.97;;;12.70;99.90;;;;;;5132610;28;20689;-66
2022/04/06 12:04:21;;;;;;;3.97;3.40;;;12.70;99.90;;;;;;5132453;28;20315;-66
2022/04/06 12:06:48;;;;;;;3.90;3.40;;;12.70;99.90;;;;;;5132292;28;20214;-67
2022/04/06 12:09:15;;;;;;;7.47;3.17;;;12.80;99.90;;;;;;5132644;28;20233;-66
2022/04/06 12:11:42;;;;;;;4.20;3.20;;;12.80;99.90;;;;;;5132110;28;20478;-67
2022/04/06 12:14:11;;;;;;;4.60;3.13;;;12.80;99.90;;;;;;5132325;28;20289;-67
2022/04/06 12:16:39;;;;;;;3.90;3.07;;;12.80;99.90;;;;;;5132358;28;20218;-67
2022/04/06 12:19:13;;;;;;;3.77;3.10;;;12.80;99.90;;;;;;5132205;28;20244;-66
2022/04/06 12:21:44;;;;;;;3.80;3.23;;;12.80;99.90;;;;;;5132717;27;20206;-66
2022/04/06 12:24:11;;;;;;;4.27;3.67;;;12.80;99.90;;;;;;5132126;28;20207;-67
2022/04/06 12:26:45;;;;;;;3.83;3.47;;;12.80;99.90;;;;;;5131953;28;20209;-67
2022/04/06 12:29:16;;;;;;;4.47;3.67;;;12.80;99.90;;;;;;5132544;28;20628;-68
2022/04/06 12:31:45;;;;;;;4.10;3.27;;;12.80;99.90;;;;;;5131761;28;20340;-67
2022/04/06 12:39:54;;;;;;;4.03;3.40;;;12.70;99.90;;;;;;5150638;27;20200;-68
2022/04/06 12:42:21;;;;;;;5.10;3.50;;;12.80;99.90;;;;;;5150846;27;20198;-66
2022/04/06 12:45:00;;;;;;;4.83;3.60;;;12.80;99.90;;;;;;5150527;27;20293;-67
2022/04/06 12:47:27;;;;;;;4.50;3.50;;;12.90;99.90;;;;;;5150671;27;20198;-67
2022/04/06 12:50:10;;;;;;;8.47;3.93;;;12.90;99.90;;;;;;5150578;27;20242;-67
2022/04/06 12:52:39;;;;;;;4.13;3.40;;;12.90;99.90;;;;;;5150880;27;20767;-67
2022/04/06 12:55:07;;;;;;;5.10;3.90;;;12.90;99.90;;;;;;5150805;27;20264;-67
2022/04/06 12:57:36;;;;;;;4.53;3.97;;;12.80;99.90;;;;;;5150575;27;20713;-66
2022/04/06 13:00:07;;;;;;;5.17;3.60;;;12.80;99.90;;;;;;5150767;27;20662;-67
2022/04/06 13:02:36;;;;;;;6.03;4.00;;;12.80;99.90;;;;;;5150536;27;20282;-67
2022/04/06 13:05:05;;;;;;;3.80;3.40;;;12.70;99.90;;;;;;5150636;27;20620;-67
2022/04/06 13:07:33;;;;;;;4.43;3.67;;;12.70;99.90;;;;;;5150495;27;20258;-67
2022/04/06 13:10:02;;;;;;;5.80;3.80;;;12.70;99.90;;;;;;5150301;27;20237;-68